Time;durP1;ratioP1;P1;durP2;ratioP2;P2;SDS_P1;SDS_P2;PMS_P1;PMS_P2;Temp;Humidity;BMP_temperature;BMP_pressure;BME280_temperature;BME280_humidity;BME280_pressure;Samples;Min_cycle;Max_cycle;Signal;HPM_P1;HPM_P2
2021/06/03 00:00:50;;;;;;;2.75;1.75;;;21.80;49.50;;;;;;5070406;28;20401;-58
2021/06/03 00:03:18;;;;;;;2.33;1.58;;;21.80;49.50;;;;;;5052494;28;20057;-60
2021/06/03 00:05:51;;;;;;;2.55;1.73;;;21.80;49.60;;;;;;5051652;28;20056;-58
2021/06/03 00:08:21;;;;;;;2.53;1.92;;;21.80;49.60;;;;;;5054085;28;20049;-58
2021/06/03 00:11:01;;;;;;;1.83;1.55;;;21.80;49.60;;;;;;5055337;28;20404;-60
2021/06/03 00:13:30;;;;;;;1.70;1.60;;;21.80;49.60;;;;;;5054551;28;20493;-59
2021/06/03 00:16:00;;;;;;;3.10;1.65;;;21.70;49.60;;;;;;5036807;28;20497;-59
2021/06/03 00:18:28;;;;;;;2.47;1.88;;;21.70;49.60;;;;;;5038059;28;20472;-59
2021/06/03 00:20:56;;;;;;;2.60;2.00;;;21.70;49.60;;;;;;5068203;28;20109;-58
2021/06/03 00:23:23;;;;;;;2.53;1.70;;;21.70;50.20;;;;;;5057834;28;20056;-58
2021/06/03 00:25:51;;;;;;;3.20;1.98;;;21.70;49.60;;;;;;5053145;28;20053;-59
2021/06/03 00:28:20;;;;;;;3.13;1.67;;;21.70;49.60;;;;;;5054283;28;20103;-59
2021/06/03 00:30:47;;;;;;;5.95;1.98;;;21.70;49.60;;;;;;5042512;28;20068;-58
2021/06/03 00:33:14;;;;;;;4.00;1.77;;;21.70;49.70;;;;;;5048361;28;20562;-58
2021/06/03 00:35:42;;;;;;;2.22;1.70;;;21.70;49.70;;;;;;5053898;28;20087;-58
2021/06/03 00:38:10;;;;;;;3.75;1.63;;;21.70;49.70;;;;;;5053964;28;20079;-59
2021/06/03 00:40:37;;;;;;;2.35;1.80;;;21.70;49.70;;;;;;5054005;28;20045;-59
2021/06/03 00:43:06;;;;;;;2.67;1.80;;;21.70;49.70;;;;;;5054937;28;20052;-58
2021/06/03 00:45:39;;;;;;;1.98;1.67;;;21.70;49.80;;;;;;5054491;28;20041;-59
2021/06/03 00:48:08;;;;;;;2.30;2.00;;;21.70;50.40;;;;;;5048577;28;20050;-59
2021/06/03 00:50:39;;;;;;;2.58;1.80;;;21.70;49.80;;;;;;5044019;28;20531;-59
2021/06/03 00:53:09;;;;;;;2.75;1.65;;;21.70;49.80;;;;;;5048201;28;20057;-59
2021/06/03 00:55:37;;;;;;;1.73;1.48;;;21.70;49.80;;;;;;5042233;28;20045;-58
2021/06/03 00:58:05;;;;;;;3.38;1.90;;;21.70;49.80;;;;;;5054429;28;20045;-60
2021/06/03 01:00:34;;;;;;;2.90;1.70;;;21.70;49.90;;;;;;5052426;28;20041;-58
2021/06/03 01:03:02;;;;;;;3.58;1.80;;;21.70;49.90;;;;;;5057151;28;20045;-59
2021/06/03 01:05:54;;;;;;;2.15;1.70;;;21.70;49.90;;;;;;5068891;28;20040;-59
2021/06/03 01:08:25;;;;;;;2.42;1.77;;;21.70;49.90;;;;;;5043353;28;20045;-59
2021/06/03 01:10:52;;;;;;;2.28;1.77;;;21.70;49.90;;;;;;5052254;28;20511;-58
2021/06/03 01:13:26;;;;;;;4.25;1.75;;;21.70;50.00;;;;;;5053188;28;20076;-59
2021/06/03 01:15:54;;;;;;;2.50;1.90;;;21.70;50.00;;;;;;5053727;28;20143;-58
2021/06/03 01:18:22;;;;;;;2.97;1.80;;;21.70;50.00;;;;;;5052973;28;20071;-59
2021/06/03 01:20:51;;;;;;;3.35;1.98;;;21.70;50.00;;;;;;5053204;28;20439;-58
2021/06/03 01:23:25;;;;;;;2.95;1.70;;;21.70;50.00;;;;;;5037287;28;20041;-59
2021/06/03 01:25:52;;;;;;;2.05;1.70;;;21.70;50.00;;;;;;5052925;28;20041;-59
2021/06/03 01:28:21;;;;;;;2.30;1.52;;;21.70;50.10;;;;;;5036317;28;20048;-58
2021/06/03 01:30:53;;;;;;;2.40;1.50;;;21.60;50.00;;;;;;5035314;28;20077;-59
2021/06/03 01:33:24;;;;;;;3.20;1.83;;;21.60;50.00;;;;;;5052892;28;20049;-59
2021/06/03 01:35:55;;;;;;;2.22;1.80;;;21.70;50.10;;;;;;5052995;28;20071;-59
2021/06/03 01:38:31;;;;;;;2.13;1.60;;;21.60;50.10;;;;;;5035708;28;20111;-59
2021/06/03 01:41:03;;;;;;;3.55;2.13;;;21.70;50.10;;;;;;5033426;28;20048;-59
2021/06/03 01:43:32;;;;;;;3.08;2.00;;;21.70;50.20;;;;;;5052829;28;20049;-59
2021/06/03 01:46:00;;;;;;;2.38;1.80;;;21.60;50.10;;;;;;5054467;28;20098;-59
2021/06/03 01:48:28;;;;;;;2.28;1.90;;;21.60;50.10;;;;;;5052899;28;20131;-58
2021/06/03 01:50:58;;;;;;;2.50;2.08;;;21.70;50.20;;;;;;5052633;28;20493;-60
2021/06/03 01:53:28;;;;;;;2.35;1.80;;;21.60;50.10;;;;;;5051243;28;20049;-59
2021/06/03 01:56:05;;;;;;;2.33;1.92;;;21.60;50.10;;;;;;5068221;28;20059;-59
2021/06/03 01:58:32;;;;;;;2.83;2.05;;;21.60;50.10;;;;;;5052393;28;20044;-58
2021/06/03 02:01:00;;;;;;;2.40;1.90;;;21.60;50.10;;;;;;5051319;28;20052;-59
2021/06/03 02:03:27;;;;;;;3.03;1.90;;;21.60;50.20;;;;;;5051610;28;20056;-60
2021/06/03 02:05:55;;;;;;;2.20;1.67;;;21.60;50.20;;;;;;5047909;28;20120;-58
2021/06/03 02:08:23;;;;;;;3.92;1.98;;;21.60;50.20;;;;;;5048006;28;20056;-59
2021/06/03 02:10:51;;;;;;;3.88;1.67;;;21.60;50.20;;;;;;5052595;28;20112;-58
2021/06/03 02:13:28;;;;;;;3.35;1.77;;;21.60;50.20;;;;;;5041847;28;20041;-58
2021/06/03 02:16:08;;;;;;;2.92;1.90;;;21.60;50.20;;;;;;5047243;28;20386;-58
2021/06/03 02:18:46;;;;;;;2.75;1.98;;;21.60;50.20;;;;;;5040312;28;20080;-59
2021/06/03 02:21:14;;;;;;;2.63;1.98;;;21.60;50.20;;;;;;5048579;28;20055;-58
2021/06/03 02:23:42;;;;;;;2.17;1.90;;;21.60;50.30;;;;;;5051190;28;20067;-59
2021/06/03 02:26:09;;;;;;;4.00;2.08;;;21.60;50.30;;;;;;5052093;28;20049;-59
2021/06/03 02:28:37;;;;;;;2.15;1.70;;;21.60;50.30;;;;;;5052109;28;20057;-58
2021/06/03 02:31:05;;;;;;;4.15;2.00;;;21.60;50.30;;;;;;5051922;28;20053;-58
2021/06/03 02:33:32;;;;;;;3.72;2.00;;;21.60;50.30;;;;;;5053514;28;20048;-59
2021/06/03 02:36:00;;;;;;;2.13;1.77;;;21.60;50.30;;;;;;5053452;28;20052;-58
2021/06/03 02:38:31;;;;;;;2.72;2.08;;;21.60;50.30;;;;;;5052353;28;20037;-59
2021/06/03 02:41:02;;;;;;;4.47;2.20;;;21.60;50.30;;;;;;5047475;28;20108;-58
2021/06/03 02:43:30;;;;;;;2.13;1.63;;;21.60;50.30;;;;;;5046410;28;20492;-59
2021/06/03 02:45:57;;;;;;;2.08;1.73;;;21.60;50.30;;;;;;5062563;28;20057;-59
2021/06/03 02:48:24;;;;;;;3.60;2.40;;;21.60;50.30;;;;;;5052909;28;20040;-58
2021/06/03 02:50:52;;;;;;;3.08;2.10;;;21.60;50.30;;;;;;5053153;28;20518;-59
2021/06/03 02:53:20;;;;;;;3.17;2.20;;;21.60;50.40;;;;;;5052564;28;20052;-59
2021/06/03 02:55:47;;;;;;;2.83;2.00;;;21.60;50.30;;;;;;5053192;28;20048;-59
2021/06/03 02:58:15;;;;;;;2.63;1.80;;;21.60;50.90;;;;;;5035780;28;20392;-58
2021/06/03 03:00:42;;;;;;;3.08;2.10;;;21.60;50.40;;;;;;5050596;28;20057;-59
2021/06/03 03:03:10;;;;;;;2.60;2.20;;;21.60;50.30;;;;;;5052318;28;20505;-59
2021/06/03 03:05:40;;;;;;;2.35;1.80;;;21.60;50.40;;;;;;5051063;28;20059;-59
2021/06/03 03:08:08;;;;;;;3.30;2.25;;;21.60;50.30;;;;;;5053807;28;20060;-59
2021/06/03 03:10:39;;;;;;;2.65;2.05;;;21.60;50.40;;;;;;5057213;28;20079;-58
2021/06/03 03:13:08;;;;;;;3.65;2.35;;;21.60;50.30;;;;;;5057060;28;20455;-60
2021/06/03 03:15:36;;;;;;;2.10;1.85;;;21.60;50.30;;;;;;5055776;28;20041;-59
2021/06/03 03:18:04;;;;;;;2.03;1.80;;;21.60;50.30;;;;;;5055428;28;20056;-58
2021/06/03 03:20:33;;;;;;;3.60;1.90;;;21.60;50.30;;;;;;5055604;28;20049;-59
2021/06/03 03:23:01;;;;;;;4.05;2.33;;;21.60;50.40;;;;;;5055829;28;20049;-59
2021/06/03 03:25:29;;;;;;;3.65;2.03;;;21.60;50.30;;;;;;5056455;28;20052;-60
2021/06/03 03:28:01;;;;;;;2.92;1.90;;;21.60;50.30;;;;;;5042417;28;20107;-59
2021/06/03 03:30:29;;;;;;;3.63;2.00;;;21.60;50.30;;;;;;5039859;28;20497;-59
2021/06/03 03:32:57;;;;;;;2.85;2.00;;;21.60;50.30;;;;;;5051238;28;20049;-58
2021/06/03 03:35:24;;;;;;;3.42;2.22;;;21.60;50.30;;;;;;5053967;28;20048;-60
2021/06/03 03:37:52;;;;;;;2.20;1.77;;;21.60;50.30;;;;;;5054351;28;20114;-58
2021/06/03 03:40:22;;;;;;;3.47;2.30;;;21.60;50.30;;;;;;5055262;28;20049;-58
2021/06/03 03:42:50;;;;;;;2.60;1.88;;;21.60;50.30;;;;;;5055270;28;20053;-58
2021/06/03 03:45:20;;;;;;;2.85;1.95;;;21.60;50.30;;;;;;5048017;28;20056;-59
2021/06/03 03:47:48;;;;;;;3.92;1.90;;;21.60;50.20;;;;;;5043200;28;20065;-59
2021/06/03 03:50:18;;;;;;;2.80;2.20;;;21.60;50.20;;;;;;5054568;28;20099;-59
2021/06/03 03:52:46;;;;;;;4.10;1.90;;;21.60;50.20;;;;;;5054628;28;20077;-58
2021/06/03 03:55:15;;;;;;;3.45;2.10;;;21.60;50.10;;;;;;5050371;28;20041;-59
2021/06/03 03:57:44;;;;;;;3.22;1.98;;;21.60;50.10;;;;;;5041193;28;20041;-59
2021/06/03 04:00:19;;;;;;;2.75;2.05;;;21.60;50.10;;;;;;5051864;28;20049;-59
2021/06/03 04:02:47;;;;;;;2.75;2.15;;;21.70;50.60;;;;;;5041808;28;20056;-58
2021/06/03 04:05:15;;;;;;;2.40;2.00;;;21.60;50.10;;;;;;5052701;28;20045;-59
2021/06/03 04:07:43;;;;;;;3.30;2.05;;;21.70;50.20;;;;;;5038941;28;20049;-58
2021/06/03 04:10:15;;;;;;;2.58;1.95;;;21.70;50.20;;;;;;5040225;28;20056;-59
2021/06/03 04:12:42;;;;;;;2.58;1.67;;;21.70;50.20;;;;;;5054183;28;20041;-58
2021/06/03 04:15:11;;;;;;;3.03;2.05;;;21.70;50.10;;;;;;5038267;28;20103;-59
2021/06/03 04:17:39;;;;;;;2.47;2.10;;;21.70;50.10;;;;;;5036592;28;20416;-58
2021/06/03 04:20:10;;;;;;;2.47;2.28;;;21.70;50.10;;;;;;5053445;28;20067;-58
2021/06/03 04:22:38;;;;;;;2.67;1.90;;;21.70;50.60;;;;;;5054917;28;20064;-59
2021/06/03 04:25:06;;;;;;;2.70;2.10;;;21.70;50.00;;;;;;5054489;28;20049;-58
2021/06/03 04:27:34;;;;;;;3.53;1.92;;;21.70;50.00;;;;;;5055488;28;20124;-58
2021/06/03 04:30:01;;;;;;;2.95;1.70;;;21.70;50.00;;;;;;5054211;28;20464;-58
2021/06/03 04:32:29;;;;;;;2.83;2.00;;;21.80;50.00;;;;;;5053268;28;20056;-58
2021/06/03 04:34:56;;;;;;;2.72;1.90;;;21.80;49.90;;;;;;5053988;28;20098;-59
2021/06/03 04:37:24;;;;;;;2.53;2.00;;;21.90;50.50;;;;;;5053048;28;20106;-58
2021/06/03 04:39:52;;;;;;;2.40;2.10;;;21.90;49.80;;;;;;5053875;28;20045;-58
2021/06/03 04:42:19;;;;;;;2.22;2.00;;;22.00;49.70;;;;;;5054045;28;20045;-58
2021/06/03 04:44:47;;;;;;;2.75;2.10;;;22.00;49.60;;;;;;5055288;28;20116;-58
2021/06/03 04:47:14;;;;;;;2.25;2.05;;;22.00;49.50;;;;;;5043977;28;20402;-58
2021/06/03 04:49:41;;;;;;;2.40;1.70;;;22.10;49.50;;;;;;5037506;28;20041;-58
2021/06/03 04:55:01;;;;;;;1.80;1.67;;;22.10;49.40;;;;;;5047149;28;20078;-59
2021/06/03 04:57:29;;;;;;;2.35;1.73;;;22.20;49.30;;;;;;5043967;28;20052;-59
2021/06/03 04:59:56;;;;;;;2.22;1.90;;;22.20;49.30;;;;;;5037297;28;20456;-59
2021/06/03 05:02:24;;;;;;;2.05;1.70;;;22.30;49.30;;;;;;5037384;28;20049;-58
2021/06/03 05:04:52;;;;;;;2.50;2.00;;;22.30;49.20;;;;;;5045267;28;20049;-59
2021/06/03 05:07:21;;;;;;;4.60;2.10;;;22.30;49.20;;;;;;5052993;28;20044;-59
2021/06/03 05:09:48;;;;;;;2.55;1.95;;;22.30;49.10;;;;;;5048849;28;20061;-59
2021/06/03 05:12:15;;;;;;;2.95;2.10;;;22.40;49.20;;;;;;5055883;28;20045;-59
2021/06/03 05:14:43;;;;;;;4.50;2.03;;;22.40;49.70;;;;;;5049843;28;20072;-59
2021/06/03 05:17:11;;;;;;;2.47;1.92;;;22.40;49.10;;;;;;5040784;28;20045;-60
2021/06/03 05:19:38;;;;;;;2.47;1.80;;;22.40;49.10;;;;;;5052155;28;20532;-59
2021/06/03 05:22:06;;;;;;;2.88;2.28;;;22.40;49.00;;;;;;5037789;28;20048;-59
2021/06/03 05:24:33;;;;;;;2.67;2.00;;;22.40;49.00;;;;;;5052948;28;20126;-60
2021/06/03 05:27:02;;;;;;;2.38;1.85;;;22.40;49.00;;;;;;5054146;28;20049;-60
2021/06/03 05:29:29;;;;;;;1.92;1.73;;;22.40;49.00;;;;;;5052800;28;20053;-59
2021/06/03 05:31:57;;;;;;;3.17;1.90;;;22.40;49.00;;;;;;5052837;28;20053;-60
2021/06/03 05:34:24;;;;;;;2.78;1.90;;;22.50;49.10;;;;;;5052062;28;20045;-59
2021/06/03 05:36:52;;;;;;;3.95;2.10;;;22.50;49.10;;;;;;5036391;28;20049;-59
2021/06/03 05:39:19;;;;;;;1.70;1.55;;;22.50;49.30;;;;;;5053811;28;20099;-59
2021/06/03 05:41:46;;;;;;;4.50;2.08;;;22.50;49.10;;;;;;5037608;28;20104;-59
2021/06/03 05:44:14;;;;;;;2.38;2.03;;;22.50;49.70;;;;;;5050512;28;20049;-60
2021/06/03 05:46:42;;;;;;;3.08;1.90;;;22.50;49.10;;;;;;5052807;28;20459;-60
2021/06/03 05:49:11;;;;;;;3.28;2.05;;;22.50;49.10;;;;;;5052776;28;20059;-59
2021/06/03 05:51:42;;;;;;;2.70;1.73;;;22.50;49.10;;;;;;5041570;28;20091;-60
2021/06/03 05:54:10;;;;;;;2.75;2.10;;;22.50;49.10;;;;;;5036330;28;20049;-59
2021/06/03 05:56:39;;;;;;;3.97;2.00;;;22.50;49.10;;;;;;5046808;28;20060;-58
2021/06/03 05:59:06;;;;;;;2.38;1.80;;;22.50;49.10;;;;;;5052377;28;20049;-59
2021/06/03 06:01:34;;;;;;;2.38;1.80;;;22.50;49.10;;;;;;5052684;28;20432;-60
2021/06/03 06:06:30;;;;;;;2.15;1.95;;;22.50;49.20;;;;;;5044574;28;20095;-60
2021/06/03 06:09:05;;;;;;;2.65;1.98;;;22.50;49.20;;;;;;5048833;28;20496;-59
2021/06/03 06:11:34;;;;;;;2.35;1.90;;;22.50;49.30;;;;;;5052675;28;20044;-60
2021/06/03 06:14:03;;;;;;;3.33;2.03;;;22.50;49.30;;;;;;5053195;28;20067;-59
2021/06/03 06:16:31;;;;;;;2.60;2.00;;;22.50;49.30;;;;;;5053568;28;20041;-59
2021/06/03 06:18:59;;;;;;;5.35;2.13;;;22.50;49.30;;;;;;5048878;28;20151;-59
2021/06/03 06:21:27;;;;;;;2.13;1.83;;;22.50;49.30;;;;;;5038198;28;20048;-59
2021/06/03 06:23:54;;;;;;;2.35;1.80;;;22.50;49.40;;;;;;5038755;28;20559;-58
2021/06/03 06:26:23;;;;;;;3.20;2.00;;;22.50;49.40;;;;;;5050475;28;20140;-57
2021/06/03 06:28:52;;;;;;;2.78;2.05;;;22.50;49.40;;;;;;5036749;28;20420;-58
2021/06/03 06:31:19;;;;;;;2.50;2.28;;;22.50;49.40;;;;;;5053395;28;20378;-58
2021/06/03 06:33:47;;;;;;;2.30;1.90;;;22.50;49.50;;;;;;5052011;28;20041;-58
2021/06/03 06:36:15;;;;;;;3.13;2.10;;;22.50;49.50;;;;;;5052533;28;20045;-57
2021/06/03 06:38:43;;;;;;;3.33;2.20;;;22.50;49.50;;;;;;5051084;28;20041;-58
2021/06/03 06:41:11;;;;;;;5.13;1.98;;;22.50;49.50;;;;;;5052397;28;20100;-58
2021/06/03 06:43:39;;;;;;;1.73;1.63;;;22.50;49.50;;;;;;5056198;28;20045;-58
2021/06/03 06:46:07;;;;;;;4.28;1.90;;;22.50;50.20;;;;;;5038953;28;20057;-58
2021/06/03 06:48:35;;;;;;;1.80;1.63;;;22.50;49.50;;;;;;5055589;28;20053;-58
2021/06/03 06:51:02;;;;;;;2.97;1.80;;;22.50;49.50;;;;;;5057396;28;20098;-58
2021/06/03 06:53:30;;;;;;;3.92;2.15;;;22.50;49.60;;;;;;5042700;28;20436;-58
2021/06/03 06:55:57;;;;;;;1.67;1.50;;;22.50;49.60;;;;;;5052528;28;20412;-59
2021/06/03 06:58:28;;;;;;;3.83;2.03;;;22.50;49.60;;;;;;5056146;28;20103;-58
2021/06/03 07:00:56;;;;;;;1.90;1.70;;;22.50;49.60;;;;;;5056083;28;20463;-58
2021/06/03 07:03:24;;;;;;;2.55;1.85;;;22.50;49.60;;;;;;5055550;28;20056;-60
2021/06/03 07:05:51;;;;;;;3.10;1.73;;;22.50;49.60;;;;;;5048554;28;20459;-59
2021/06/03 07:08:18;;;;;;;2.63;2.20;;;22.50;49.60;;;;;;5046856;28;20049;-59
2021/06/03 07:10:46;;;;;;;1.80;1.50;;;22.50;49.60;;;;;;5040295;28;20095;-58
2021/06/03 07:13:13;;;;;;;2.78;1.85;;;22.50;49.60;;;;;;5047516;28;20087;-59
2021/06/03 07:15:41;;;;;;;2.30;1.88;;;22.50;49.60;;;;;;5055484;28;20041;-59
2021/06/03 07:18:08;;;;;;;2.95;1.85;;;22.50;49.60;;;;;;5055457;28;20045;-59
2021/06/03 07:20:35;;;;;;;2.80;1.98;;;22.50;49.60;;;;;;5054311;28;20113;-58
2021/06/03 07:23:04;;;;;;;2.00;1.80;;;22.50;49.60;;;;;;5056502;28;20415;-58
2021/06/03 07:25:35;;;;;;;2.25;1.80;;;22.50;49.60;;;;;;5053284;28;20045;-59
2021/06/03 07:28:03;;;;;;;3.90;2.03;;;22.50;49.60;;;;;;5042350;28;20058;-58
2021/06/03 07:30:32;;;;;;;3.75;1.90;;;22.50;49.60;;;;;;5056366;28;20396;-57
2021/06/03 07:33:00;;;;;;;3.30;2.00;;;22.50;49.60;;;;;;5055145;28;20114;-58
2021/06/03 07:35:28;;;;;;;3.05;2.00;;;22.50;49.50;;;;;;5055075;28;20043;-58
2021/06/03 07:37:56;;;;;;;2.90;1.85;;;22.50;49.50;;;;;;5037911;28;20049;-58
2021/06/03 07:40:30;;;;;;;2.72;2.03;;;22.50;49.50;;;;;;5073094;28;20044;-59
2021/06/03 07:42:58;;;;;;;2.20;2.00;;;22.50;49.50;;;;;;5037938;28;20065;-59
2021/06/03 07:45:28;;;;;;;2.13;1.77;;;22.60;49.60;;;;;;5054100;28;20456;-58
2021/06/03 07:47:57;;;;;;;2.72;1.90;;;22.50;49.50;;;;;;5054411;28;20562;-58
2021/06/03 07:50:28;;;;;;;4.30;2.47;;;22.60;49.60;;;;;;5055085;28;20099;-59
2021/06/03 07:52:56;;;;;;;2.33;1.95;;;22.60;49.60;;;;;;5054466;28;20111;-59
2021/06/03 07:55:24;;;;;;;2.10;1.90;;;22.60;49.60;;;;;;5053969;28;20056;-58
2021/06/03 07:57:55;;;;;;;2.20;1.75;;;22.60;49.50;;;;;;5054787;28;20048;-59
2021/06/03 08:00:24;;;;;;;3.10;1.85;;;22.60;49.60;;;;;;5039460;28;20132;-60
2021/06/03 08:02:52;;;;;;;2.28;1.58;;;22.60;49.50;;;;;;5038698;28;20494;-58
2021/06/03 08:05:21;;;;;;;2.58;1.80;;;22.60;49.50;;;;;;5039747;28;20050;-58
2021/06/03 08:07:50;;;;;;;1.98;1.70;;;22.60;49.50;;;;;;5054677;28;20103;-59
2021/06/03 08:10:24;;;;;;;3.35;2.10;;;22.60;49.50;;;;;;5044609;28;20123;-59
2021/06/03 08:12:53;;;;;;;1.88;1.67;;;22.60;49.50;;;;;;5039302;28;20089;-58
2021/06/03 08:15:24;;;;;;;2.33;1.80;;;22.60;49.50;;;;;;5049679;28;20041;-59
2021/06/03 08:17:52;;;;;;;2.03;1.65;;;22.60;49.50;;;;;;5055350;28;20520;-59
2021/06/03 08:20:45;;;;;;;2.13;1.60;;;22.60;49.50;;;;;;5069738;28;20049;-59
2021/06/03 08:23:15;;;;;;;2.90;1.98;;;22.60;49.50;;;;;;5048368;28;20463;-59
2021/06/03 08:25:43;;;;;;;3.05;1.70;;;22.60;49.50;;;;;;5053692;28;20048;-58
2021/06/03 08:28:10;;;;;;;2.60;1.63;;;22.70;49.60;;;;;;5042380;28;20501;-58
2021/06/03 08:30:39;;;;;;;2.33;1.90;;;22.60;49.50;;;;;;5036802;28;20107;-59
2021/06/03 08:33:07;;;;;;;2.60;1.70;;;22.60;49.50;;;;;;5046487;28;20045;-58
2021/06/03 08:35:35;;;;;;;1.95;1.52;;;22.60;49.60;;;;;;5053963;28;20489;-59
2021/06/03 08:38:10;;;;;;;1.42;1.33;;;22.60;49.50;;;;;;5054972;28;20098;-59
2021/06/03 08:40:42;;;;;;;2.30;1.70;;;22.70;49.60;;;;;;5054084;28;20098;-59
2021/06/03 08:43:10;;;;;;;2.63;1.67;;;22.60;49.50;;;;;;5046915;28;20060;-59
2021/06/03 08:45:39;;;;;;;3.50;1.90;;;22.70;49.60;;;;;;5047386;28;20048;-59
2021/06/03 08:48:07;;;;;;;1.88;1.50;;;22.70;49.60;;;;;;5053880;28;20110;-59
2021/06/03 08:50:38;;;;;;;2.60;2.20;;;22.70;49.60;;;;;;5048187;28;20045;-59
2021/06/03 08:53:06;;;;;;;2.00;1.77;;;22.70;49.60;;;;;;5042602;28;20053;-58
2021/06/03 08:58:25;;;;;;;2.75;1.77;;;22.70;49.60;;;;;;5054643;28;20094;-58
2021/06/03 09:00:54;;;;;;;2.28;1.92;;;22.70;49.60;;;;;;5054902;28;20485;-58
2021/06/03 09:03:24;;;;;;;2.17;1.73;;;22.70;49.60;;;;;;5049048;28;20045;-58
2021/06/03 09:05:53;;;;;;;2.58;1.73;;;22.70;49.60;;;;;;5037737;28;20140;-58
2021/06/03 09:08:46;;;;;;;1.98;1.70;;;22.70;49.60;;;;;;5046214;28;20095;-58
2021/06/03 09:11:16;;;;;;;3.33;1.80;;;22.70;49.60;;;;;;5053723;28;20049;-59
2021/06/03 09:14:02;;;;;;;2.13;1.67;;;22.70;49.60;;;;;;5058194;28;20102;-58
2021/06/03 09:16:32;;;;;;;2.40;1.77;;;22.70;49.60;;;;;;5062196;28;20036;-58
2021/06/03 09:19:13;;;;;;;1.95;1.50;;;22.70;49.60;;;;;;5053031;28;20091;-58
2021/06/03 09:21:44;;;;;;;2.75;1.77;;;22.70;49.50;;;;;;5052414;28;20044;-58
2021/06/03 09:24:17;;;;;;;2.47;1.80;;;22.70;49.50;;;;;;5054183;28;20048;-58
2021/06/03 09:26:56;;;;;;;3.08;2.00;;;22.70;49.50;;;;;;5053010;28;20404;-59
2021/06/03 09:29:35;;;;;;;2.13;1.90;;;22.70;49.50;;;;;;5052789;28;20557;-59
2021/06/03 09:32:12;;;;;;;3.42;1.90;;;22.70;49.50;;;;;;5053008;28;20057;-59
2021/06/03 09:34:40;;;;;;;2.65;1.73;;;22.70;49.50;;;;;;5054270;28;20044;-58
2021/06/03 09:37:10;;;;;;;3.92;1.88;;;22.70;49.50;;;;;;5067042;28;20048;-58
2021/06/03 09:39:43;;;;;;;2.05;1.70;;;22.80;49.60;;;;;;5052820;28;20041;-58
2021/06/03 09:42:11;;;;;;;1.75;1.48;;;22.80;49.60;;;;;;5052735;28;20049;-59
2021/06/03 09:44:49;;;;;;;2.38;1.60;;;22.80;49.60;;;;;;5069470;28;20119;-59
2021/06/03 09:47:37;;;;;;;1.98;1.60;;;22.80;49.60;;;;;;5053699;28;20064;-59
2021/06/03 09:50:08;;;;;;;3.47;1.70;;;22.80;49.60;;;;;;5053853;28;20049;-59
2021/06/03 09:52:38;;;;;;;2.70;1.85;;;22.80;49.70;;;;;;5052563;28;20160;-57
2021/06/03 09:55:10;;;;;;;2.30;1.50;;;22.80;49.60;;;;;;5044900;28;20559;-59
2021/06/03 09:57:44;;;;;;;1.70;1.58;;;22.80;49.60;;;;;;5037567;28;20072;-58
2021/06/03 10:00:19;;;;;;;2.08;1.67;;;22.80;49.70;;;;;;5045400;28;20048;-59
2021/06/03 10:02:52;;;;;;;2.38;1.40;;;22.80;49.70;;;;;;5053610;28;20056;-59
2021/06/03 10:05:22;;;;;;;1.95;1.60;;;22.80;49.60;;;;;;5053814;28;20049;-59
2021/06/03 10:08:01;;;;;;;1.77;1.50;;;22.80;49.60;;;;;;5043909;28;20045;-59
2021/06/03 10:10:30;;;;;;;1.73;1.60;;;22.80;49.60;;;;;;5052241;28;20052;-58
2021/06/03 10:13:03;;;;;;;2.20;1.85;;;22.90;49.70;;;;;;5052400;28;20056;-59
2021/06/03 10:15:30;;;;;;;2.35;1.70;;;22.80;49.60;;;;;;5051409;28;20099;-60
2021/06/03 10:18:07;;;;;;;2.15;1.60;;;22.80;49.60;;;;;;5050759;28;20056;-58
2021/06/03 10:20:42;;;;;;;1.75;1.60;;;22.80;49.60;;;;;;5045020;28;20547;-59
2021/06/03 10:23:19;;;;;;;1.88;1.60;;;22.80;49.60;;;;;;5035802;28;20060;-58
2021/06/03 10:25:49;;;;;;;2.25;1.40;;;22.80;49.70;;;;;;5036061;28;20065;-59
2021/06/03 10:28:23;;;;;;;2.05;1.73;;;22.90;49.80;;;;;;5035994;28;20129;-59
2021/06/03 10:30:54;;;;;;;2.20;1.50;;;22.90;49.90;;;;;;5042871;28;20048;-59
2021/06/03 10:33:26;;;;;;;3.50;1.70;;;22.90;49.80;;;;;;5052284;28;20049;-58
2021/06/03 10:35:56;;;;;;;2.63;2.00;;;22.90;49.80;;;;;;5052235;28;20174;-58
2021/06/03 10:38:25;;;;;;;2.70;1.92;;;22.90;49.80;;;;;;5046233;28;20099;-58
2021/06/03 10:41:03;;;;;;;3.28;2.05;;;22.90;49.70;;;;;;5041967;28;20536;-60
2021/06/03 10:43:35;;;;;;;2.40;1.67;;;22.90;49.90;;;;;;5046443;28;20130;-59
2021/06/03 10:46:05;;;;;;;2.08;1.88;;;22.90;49.90;;;;;;5042254;28;20092;-59
2021/06/03 10:48:32;;;;;;;2.70;1.52;;;22.90;49.90;;;;;;5048074;28;20081;-59
2021/06/03 10:51:05;;;;;;;2.13;1.58;;;22.90;49.90;;;;;;5036846;28;20099;-59
2021/06/03 10:53:32;;;;;;;1.65;1.38;;;22.90;49.90;;;;;;5039316;28;20521;-59
2021/06/03 10:56:11;;;;;;;2.58;1.92;;;22.90;49.80;;;;;;5050777;28;20435;-59
2021/06/03 10:58:40;;;;;;;4.32;2.00;;;22.90;49.90;;;;;;5053346;28;20052;-59
2021/06/03 11:01:16;;;;;;;2.95;1.77;;;22.90;49.90;;;;;;5051561;28;20097;-59
2021/06/03 11:03:55;;;;;;;2.20;1.70;;;22.90;49.90;;;;;;5051694;28;20071;-60
2021/06/03 11:06:26;;;;;;;2.45;1.90;;;22.90;50.00;;;;;;5051305;28;20110;-58
2021/06/03 11:08:56;;;;;;;4.32;1.73;;;22.90;50.00;;;;;;5050411;28;20445;-59
2021/06/03 11:11:28;;;;;;;3.20;2.05;;;22.90;50.00;;;;;;5048930;28;20448;-59
2021/06/03 11:14:05;;;;;;;1.80;1.60;;;22.90;49.90;;;;;;5035485;28;20057;-59
2021/06/03 11:16:35;;;;;;;4.13;1.73;;;22.90;49.90;;;;;;5038527;28;20132;-59
2021/06/03 11:19:02;;;;;;;2.08;1.60;;;22.90;49.90;;;;;;5050193;28;20040;-59
2021/06/03 11:21:38;;;;;;;1.80;1.70;;;22.90;49.90;;;;;;5049982;28;20124;-59
2021/06/03 11:24:15;;;;;;;2.97;1.52;;;22.90;49.90;;;;;;5038574;28;20094;-58
2021/06/03 11:26:42;;;;;;;2.30;1.73;;;22.90;49.90;;;;;;5049751;28;20045;-59
2021/06/03 11:29:29;;;;;;;2.47;1.80;;;22.90;49.90;;;;;;5039365;28;20111;-59
2021/06/03 11:32:03;;;;;;;1.95;1.70;;;22.90;49.90;;;;;;5070666;28;20098;-59
2021/06/03 11:34:42;;;;;;;4.43;1.98;;;22.90;50.00;;;;;;5055338;28;20048;-59
2021/06/03 11:37:25;;;;;;;1.92;1.70;;;23.00;50.00;;;;;;5055726;28;20111;-58
2021/06/03 11:40:08;;;;;;;1.85;1.52;;;22.90;50.00;;;;;;5056177;28;20127;-57
2021/06/03 11:42:46;;;;;;;2.10;1.83;;;23.00;50.00;;;;;;5056333;28;20382;-59
2021/06/03 11:45:23;;;;;;;2.53;1.65;;;23.00;50.00;;;;;;5049223;28;20129;-58
2021/06/03 11:47:55;;;;;;;1.98;1.77;;;23.00;50.00;;;;;;5038735;28;20081;-59
2021/06/03 11:50:22;;;;;;;4.70;1.75;;;23.00;50.00;;;;;;5045758;28;20045;-58
2021/06/03 11:53:03;;;;;;;3.00;2.10;;;23.00;50.00;;;;;;5054572;28;20139;-59
2021/06/03 11:55:52;;;;;;;3.30;1.95;;;23.00;50.00;;;;;;5049308;28;20125;-59
2021/06/03 11:58:39;;;;;;;2.33;1.85;;;23.00;50.60;;;;;;5061918;28;20128;-59
2021/06/03 12:01:15;;;;;;;2.67;2.00;;;23.00;50.00;;;;;;5068969;28;20059;-58
2021/06/03 12:03:45;;;;;;;2.85;2.28;;;23.00;50.00;;;;;;5043503;28;20049;-58
2021/06/03 12:06:16;;;;;;;2.33;1.98;;;23.00;50.00;;;;;;5042331;28;20129;-58
2021/06/03 12:08:50;;;;;;;2.00;1.80;;;23.00;50.00;;;;;;5048003;28;20123;-59
2021/06/03 12:11:44;;;;;;;2.13;1.75;;;23.00;50.00;;;;;;5054814;28;20056;-58
2021/06/03 12:14:27;;;;;;;2.17;1.85;;;23.00;50.00;;;;;;5054473;28;20045;-58
2021/06/03 12:17:04;;;;;;;1.92;1.50;;;23.00;50.00;;;;;;5038973;28;20072;-58
2021/06/03 12:19:38;;;;;;;1.88;1.75;;;23.00;50.00;;;;;;5053983;28;20041;-58
2021/06/03 12:22:11;;;;;;;2.03;1.83;;;23.00;50.00;;;;;;5054340;28;20076;-57
2021/06/03 12:24:45;;;;;;;2.67;1.92;;;23.00;50.00;;;;;;5040066;28;20084;-58
2021/06/03 12:27:34;;;;;;;2.47;2.00;;;23.00;50.00;;;;;;5052505;28;20470;-58
2021/06/03 12:30:15;;;;;;;2.70;2.20;;;23.00;50.00;;;;;;5053220;28;20056;-59
2021/06/03 12:33:03;;;;;;;2.45;1.90;;;23.00;50.00;;;;;;5054499;28;20051;-58
2021/06/03 12:35:33;;;;;;;2.70;1.92;;;23.00;50.00;;;;;;5036107;28;20045;-58
2021/06/03 12:38:02;;;;;;;2.65;1.95;;;23.00;50.00;;;;;;5036456;28;20508;-58
2021/06/03 12:40:30;;;;;;;1.90;1.70;;;23.00;50.00;;;;;;5052549;28;20045;-58
2021/06/03 12:43:08;;;;;;;2.65;1.80;;;23.00;50.00;;;;;;5053925;28;20045;-58
2021/06/03 12:45:40;;;;;;;3.30;2.20;;;23.00;49.90;;;;;;5036473;28;20100;-59
2021/06/03 12:48:10;;;;;;;2.55;2.03;;;23.00;49.90;;;;;;5053227;28;20519;-59
2021/06/03 12:50:44;;;;;;;4.45;1.52;;;23.00;49.80;;;;;;5054187;28;20052;-58
2021/06/03 12:53:16;;;;;;;2.03;1.83;;;23.00;49.80;;;;;;5053943;28;20140;-59
2021/06/03 12:55:44;;;;;;;2.20;1.98;;;23.00;49.80;;;;;;5035951;28;20049;-58
2021/06/03 12:58:15;;;;;;;3.17;2.08;;;23.00;49.80;;;;;;5052991;28;20045;-58
2021/06/03 13:00:45;;;;;;;2.78;1.88;;;23.00;49.70;;;;;;5053904;28;20045;-58
2021/06/03 13:03:21;;;;;;;2.03;1.75;;;23.00;49.70;;;;;;5053967;28;20452;-58
2021/06/03 13:05:59;;;;;;;2.20;1.95;;;23.00;49.70;;;;;;5036724;28;20472;-60
2021/06/03 13:08:45;;;;;;;3.17;1.90;;;23.00;49.70;;;;;;5051764;28;20095;-59
2021/06/03 13:11:27;;;;;;;2.00;1.70;;;23.00;49.70;;;;;;5035831;28;20073;-59
2021/06/03 13:13:55;;;;;;;2.13;1.90;;;23.00;49.70;;;;;;5035723;28;20111;-59